createdAt,value
2023-04-06T00:02:12.709Z,27.17
2023-04-06T00:04:40.227Z,26.38
2023-04-06T00:07:07.555Z,26.55
2023-04-06T00:09:35.183Z,29.25
2023-04-06T00:12:03.775Z,34.78
2023-04-06T00:14:33.192Z,53.45
2023-04-06T00:17:01.724Z,33.00
2023-04-06T00:19:30.056Z,31.30
2023-04-06T00:21:57.599Z,36.00
2023-04-06T00:24:25.959Z,40.33
2023-04-06T00:26:53.511Z,39.70
2023-04-06T00:29:21.239Z,33.78
2023-04-06T00:31:49.495Z,38.60
2023-04-06T00:34:17.922Z,34.30
2023-04-06T00:36:46.351Z,37.22
2023-04-06T00:39:13.841Z,48.03
2023-04-06T00:41:49.331Z,51.90
2023-04-06T00:44:17.026Z,47.30
2023-04-06T00:46:46.859Z,45.88
2023-04-06T00:49:14.447Z,68.35
2023-04-06T00:51:42.965Z,50.80
2023-04-06T00:54:17.097Z,42.28
2023-04-06T00:56:45.816Z,48.22
2023-04-06T00:59:13.787Z,37.97
2023-04-06T01:01:41.648Z,48.58
2023-04-06T01:04:10.195Z,41.05
2023-04-06T01:06:37.513Z,45.38
2023-04-06T01:09:07.178Z,47.17
2023-04-06T01:11:34.824Z,44.92
2023-04-06T01:14:02.263Z,45.85
2023-04-06T01:16:30.849Z,43.67
2023-04-06T01:19:11.990Z,42.55
2023-04-06T01:21:40.769Z,42.83
2023-04-06T01:24:09.340Z,45.75
2023-04-06T01:26:36.924Z,43.03
2023-04-06T01:29:05.612Z,42.33
2023-04-06T01:31:33.689Z,47.85
2023-04-06T01:34:01.493Z,49.08
2023-04-06T01:36:35.110Z,44.95
2023-04-06T01:39:03.611Z,43.55
2023-04-06T01:41:31.041Z,41.97
2023-04-06T01:43:58.444Z,46.58
2023-04-06T01:46:25.950Z,44.25
2023-04-06T01:48:54.353Z,46.50
2023-04-06T01:51:22.931Z,44.30
2023-04-06T01:53:50.724Z,46.03
2023-04-06T01:56:18.252Z,45.67
2023-04-06T01:58:45.884Z,44.42
2023-04-06T02:01:13.185Z,40.35
2023-04-06T02:03:40.610Z,37.42
2023-04-06T02:06:08.120Z,38.47
2023-04-06T02:08:35.701Z,37.85
2023-04-06T02:11:04.102Z,41.58
2023-04-06T02:13:31.634Z,40.25
2023-04-06T02:15:59.369Z,39.38
2023-04-06T02:18:27.025Z,64.55
2023-04-06T02:20:54.497Z,96.32
2023-04-06T02:23:22.856Z,62.95
2023-04-06T02:25:50.404Z,46.00
2023-04-06T02:28:18.852Z,46.30
2023-04-06T02:30:46.593Z,47.92
2023-04-06T02:33:13.666Z,44.65
2023-04-06T02:35:41.317Z,41.45
2023-04-06T02:38:08.605Z,39.67
2023-04-06T02:40:36.063Z,41.08
2023-04-06T02:43:03.506Z,40.85
2023-04-06T02:45:31.177Z,44.20
2023-04-06T02:47:58.590Z,45.10
2023-04-06T02:50:27.945Z,42.15
2023-04-06T02:52:55.490Z,40.95
2023-04-06T02:55:23.075Z,42.00
2023-04-06T02:57:50.340Z,39.45
2023-04-06T03:00:19.210Z,41.53
2023-04-06T03:02:46.488Z,44.53
2023-04-06T03:05:13.709Z,43.90
2023-04-06T03:07:40.977Z,39.45
2023-04-06T03:10:11.110Z,37.85
2023-04-06T03:12:38.785Z,38.00
2023-04-06T03:15:07.503Z,39.08
2023-04-06T03:17:34.705Z,41.08
2023-04-06T03:20:02.059Z,37.88
2023-04-06T03:22:30.442Z,39.58
2023-04-06T03:24:57.995Z,43.53
2023-04-06T03:27:26.458Z,46.25
2023-04-06T03:29:55.025Z,43.25
2023-04-06T03:32:28.035Z,44.88
2023-04-06T03:34:55.613Z,40.10
2023-04-06T03:37:25.015Z,40.28
2023-04-06T03:39:53.292Z,39.53
2023-04-06T03:42:21.706Z,44.42
2023-04-06T03:44:48.908Z,46.38
2023-04-06T03:47:16.450Z,45.35
2023-04-06T03:49:45.914Z,44.85
2023-04-06T03:52:13.421Z,44.30
2023-04-06T03:54:41.070Z,43.85
2023-04-06T03:57:08.440Z,43.22
2023-04-06T03:59:35.753Z,41.10
2023-04-06T04:02:03.230Z,42.78
2023-04-06T04:04:30.628Z,41.85
2023-04-06T04:06:57.693Z,40.97
2023-04-06T04:09:25.487Z,41.92
2023-04-06T04:11:54.620Z,41.92
2023-04-06T04:14:22.204Z,41.58
2023-04-06T04:16:49.576Z,44.25
2023-04-06T04:19:17.864Z,44.25
2023-04-06T04:21:47.250Z,47.20
2023-04-06T04:24:15.060Z,43.85
2023-04-06T04:26:42.589Z,42.72
2023-04-06T04:29:11.258Z,44.22
2023-04-06T04:31:38.383Z,43.33
2023-04-06T04:34:08.140Z,44.00
2023-04-06T04:36:36.417Z,44.25
2023-04-06T04:39:03.940Z,43.58
2023-04-06T04:41:31.522Z,45.38
2023-04-06T04:43:59.849Z,46.45
2023-04-06T04:46:29.216Z,46.72
2023-04-06T04:48:57.891Z,47.47
2023-04-06T04:51:26.415Z,48.28
2023-04-06T04:53:55.580Z,47.20
2023-04-06T04:56:22.636Z,45.00
2023-04-06T04:58:51.409Z,47.17
2023-04-06T05:01:18.993Z,47.17
2023-04-06T05:03:46.535Z,47.42
2023-04-06T05:06:13.948Z,49.90
2023-04-06T05:08:42.397Z,54.25
2023-04-06T05:11:10.801Z,50.33
2023-04-06T05:13:38.411Z,57.45
2023-04-06T05:16:08.104Z,57.60
2023-04-06T05:18:36.649Z,50.17
2023-04-06T05:21:04.842Z,48.42
2023-04-06T05:23:32.353Z,43.65
2023-04-06T05:26:00.176Z,43.88
2023-04-06T05:28:27.237Z,40.72
2023-04-06T05:30:58.184Z,43.03
2023-04-06T05:33:26.523Z,43.05
2023-04-06T05:35:53.648Z,43.45
2023-04-06T05:38:21.236Z,45.47
2023-04-06T05:40:49.522Z,44.92
2023-04-06T05:43:16.967Z,48.13
2023-04-06T05:45:46.866Z,50.33
2023-04-06T05:48:14.110Z,60.05
2023-04-06T05:50:41.372Z,61.95
2023-04-06T05:53:08.942Z,70.72
2023-04-06T05:55:36.472Z,66.93
2023-04-06T05:58:03.779Z,73.85
2023-04-06T06:00:32.482Z,77.93
2023-04-06T06:03:05.578Z,76.07
2023-04-06T06:08:05.900Z,71.32
2023-04-06T06:10:33.451Z,74.00
2023-04-06T06:13:00.792Z,105.97
2023-04-06T06:15:28.362Z,92.25
2023-04-06T06:17:55.810Z,80.90
2023-04-06T06:20:23.330Z,87.90
2023-04-06T06:22:51.753Z,75.13
2023-04-06T06:25:18.798Z,74.03
2023-04-06T06:27:46.200Z,69.22
2023-04-06T06:30:13.704Z,67.90
2023-04-06T06:32:41.390Z,68.95
2023-04-06T06:35:09.353Z,71.35
2023-04-06T06:37:36.502Z,62.05
2023-04-06T06:40:04.086Z,57.95
2023-04-06T06:42:38.234Z,57.15
2023-04-06T06:45:06.016Z,56.70
2023-04-06T06:47:33.725Z,57.00
2023-04-06T06:50:01.186Z,55.92
2023-04-06T06:52:30.139Z,54.75
2023-04-06T06:54:58.032Z,55.00
2023-04-06T06:57:27.757Z,69.65
2023-04-06T06:59:54.991Z,68.55
2023-04-06T07:02:22.274Z,59.30
2023-04-06T07:04:51.018Z,55.05
2023-04-06T07:07:18.315Z,53.42
2023-04-06T07:09:45.747Z,52.28
2023-04-06T07:12:13.101Z,51.50
2023-04-06T07:14:40.799Z,51.38
2023-04-06T07:17:08.258Z,47.63
2023-04-06T07:19:35.454Z,46.67
2023-04-06T07:22:03.752Z,46.20
2023-04-06T07:24:30.990Z,45.00
2023-04-06T07:27:00.224Z,41.67
2023-04-06T07:29:27.940Z,42.60
2023-04-06T07:31:57.537Z,42.42
2023-04-06T07:34:25.888Z,41.97
2023-04-06T07:36:55.085Z,40.80
2023-04-06T07:39:22.263Z,42.17
2023-04-06T07:41:49.852Z,42.10
2023-04-06T07:44:18.353Z,40.35
2023-04-06T07:46:45.690Z,39.78
2023-04-06T07:49:13.590Z,39.33
2023-04-06T07:51:41.414Z,37.83
2023-04-06T07:54:08.868Z,36.47
2023-04-06T07:56:36.114Z,36.60
2023-04-06T07:59:04.303Z,33.85
2023-04-06T08:01:31.891Z,35.25
2023-04-06T08:03:59.751Z,33.50
2023-04-06T08:06:27.570Z,32.50
2023-04-06T08:08:55.371Z,30.35
2023-04-06T08:11:23.180Z,29.15
2023-04-06T08:13:51.498Z,28.08
2023-04-06T08:16:18.872Z,28.52
2023-04-06T08:18:48.344Z,29.55
2023-04-06T08:21:16.058Z,36.65
2023-04-06T08:23:44.613Z,28.83
2023-04-06T08:26:12.082Z,21.65
2023-04-06T08:28:39.597Z,26.10
2023-04-06T08:31:08.428Z,23.90
2023-04-06T08:33:40.445Z,24.08
2023-04-06T08:36:12.692Z,27.08
2023-04-06T08:38:41.343Z,26.67
2023-04-06T08:41:15.566Z,19.92
2023-04-06T08:43:50.654Z,21.17
2023-04-06T08:46:19.211Z,22.05
2023-04-06T08:48:47.430Z,20.35
2023-04-06T08:51:15.273Z,20.55
2023-04-06T08:53:43.373Z,18.13
2023-04-06T08:56:11.842Z,39.70
2023-04-06T08:58:41.834Z,35.92
2023-04-06T09:01:12.872Z,23.15
2023-04-06T09:03:42.143Z,17.45
2023-04-06T09:06:10.426Z,14.10
2023-04-06T09:08:40.590Z,12.90
2023-04-06T09:11:08.741Z,13.30
2023-04-06T09:13:51.301Z,13.40
2023-04-06T09:16:20.071Z,13.30
2023-04-06T09:18:48.284Z,12.82
2023-04-06T09:21:20.645Z,13.13
2023-04-06T09:26:26.998Z,11.93
2023-04-06T09:28:58.935Z,11.63
2023-04-06T09:31:28.436Z,11.68
2023-04-06T09:33:56.584Z,11.25
2023-04-06T09:36:36.976Z,12.60
2023-04-06T09:39:06.250Z,12.48
2023-04-06T09:41:36.769Z,13.25
2023-04-06T09:44:12.736Z,13.20
2023-04-06T09:46:57.639Z,12.60
2023-04-06T09:49:29.604Z,12.00
2023-04-06T09:52:10.288Z,10.85
2023-04-06T09:54:39.889Z,10.63
2023-04-06T09:57:45.754Z,10.93
2023-04-06T10:00:20.342Z,10.60
2023-04-06T10:02:59.514Z,9.35
2023-04-06T10:05:44.076Z,9.32
2023-04-06T10:08:12.254Z,9.05
2023-04-06T10:10:39.784Z,9.55
2023-04-06T10:13:07.385Z,9.02
2023-04-06T10:15:36.153Z,10.88
2023-04-06T10:18:04.924Z,9.98
2023-04-06T10:21:10.290Z,10.57
2023-04-06T10:23:43.088Z,9.95
2023-04-06T10:26:17.625Z,11.10
2023-04-06T10:28:48.202Z,9.55
2023-04-06T10:31:16.030Z,9.35
2023-04-06T10:33:55.968Z,9.60
2023-04-06T10:36:26.868Z,10.00
2023-04-06T10:39:06.457Z,9.15
2023-04-06T10:41:43.537Z,9.65
2023-04-06T10:44:25.278Z,9.88
2023-04-06T10:47:02.986Z,10.48
2023-04-06T10:49:31.292Z,9.48
2023-04-06T10:51:59.065Z,10.40
2023-04-06T10:54:29.454Z,10.55
2023-04-06T10:56:57.844Z,11.00
2023-04-06T10:59:26.716Z,10.13
2023-04-06T11:01:57.197Z,10.50
2023-04-06T11:04:25.161Z,11.25
2023-04-06T11:06:52.316Z,12.25
2023-04-06T11:09:32.832Z,12.88
2023-04-06T11:12:00.093Z,11.50
2023-04-06T11:14:27.977Z,12.30
2023-04-06T11:16:55.379Z,11.82
2023-04-06T11:19:22.710Z,11.30
2023-04-06T11:21:50.805Z,11.82
2023-04-06T11:24:25.299Z,12.90
2023-04-06T11:27:02.265Z,11.77
2023-04-06T11:29:36.777Z,11.75
2023-04-06T11:32:06.986Z,9.80
2023-04-06T11:34:40.872Z,11.35
2023-04-06T11:37:13.515Z,11.45
2023-04-06T11:39:52.652Z,11.15
2023-04-06T11:42:29.497Z,10.35
2023-04-06T11:45:01.689Z,10.63
2023-04-06T11:47:37.800Z,9.55
2023-04-06T11:50:15.382Z,10.52
2023-04-06T11:52:43.937Z,9.88
2023-04-06T11:55:19.281Z,9.73
2023-04-06T11:57:46.806Z,10.02
2023-04-06T12:00:14.745Z,10.45
2023-04-06T12:02:47.654Z,9.98
2023-04-06T12:05:14.906Z,10.65
2023-04-06T12:10:09.690Z,9.70
2023-04-06T12:12:37.080Z,10.18
2023-04-06T12:15:06.384Z,9.02
2023-04-06T12:17:39.676Z,9.63
2023-04-06T12:20:18.074Z,9.18
2023-04-06T12:22:51.992Z,9.02
2023-04-06T12:25:19.163Z,9.10
2023-04-06T12:27:46.697Z,9.60
2023-04-06T12:30:15.342Z,9.80
2023-04-06T12:32:42.476Z,9.52
2023-04-06T12:35:12.832Z,9.32
2023-04-06T12:37:41.557Z,9.45
2023-04-06T12:40:11.819Z,9.10
2023-04-06T12:42:42.021Z,9.75
2023-04-06T12:45:10.259Z,11.60
2023-04-06T12:47:39.077Z,9.75
2023-04-06T12:50:07.882Z,10.07
2023-04-06T12:52:36.613Z,12.00
2023-04-06T12:55:06.400Z,12.32
2023-04-06T12:57:34.060Z,10.65
2023-04-06T13:00:01.544Z,9.93
2023-04-06T13:02:29.040Z,10.88
2023-04-06T13:04:56.365Z,10.40
2023-04-06T13:07:23.945Z,10.05
2023-04-06T13:09:52.826Z,10.07
2023-04-06T13:12:20.251Z,10.95
2023-04-06T13:14:52.196Z,10.00
2023-04-06T13:17:19.337Z,11.43
2023-04-06T13:19:46.826Z,17.38
2023-04-06T13:22:14.737Z,11.35
2023-04-06T13:24:42.207Z,12.75
2023-04-06T13:27:13.799Z,12.77
2023-04-06T13:29:41.344Z,10.57
2023-04-06T13:32:11.158Z,11.48
2023-04-06T13:34:38.775Z,11.00
2023-04-06T13:37:06.120Z,12.45
2023-04-06T13:39:33.701Z,11.85
2023-04-06T13:42:02.842Z,10.65
2023-04-06T13:44:31.997Z,10.65
2023-04-06T13:47:05.867Z,11.13
2023-04-06T13:49:33.935Z,11.15
2023-04-06T13:52:04.728Z,11.50
2023-04-06T13:54:34.099Z,11.23
2023-04-06T13:57:02.864Z,11.32
2023-04-06T13:59:40.518Z,11.32
2023-04-06T14:02:10.926Z,11.52
2023-04-06T14:04:38.550Z,10.77
2023-04-06T14:07:08.539Z,10.30
2023-04-06T14:09:35.901Z,10.23
2023-04-06T14:12:03.209Z,10.63
2023-04-06T14:14:30.767Z,11.60
2023-04-06T14:16:58.167Z,10.88
2023-04-06T14:19:25.697Z,10.43
2023-04-06T14:21:52.991Z,10.13
2023-04-06T14:24:22.502Z,8.60
2023-04-06T14:26:49.495Z,9.25
2023-04-06T14:29:17.963Z,9.27
2023-04-06T14:31:48.366Z,10.23
2023-04-06T14:34:17.146Z,13.75
2023-04-06T14:36:44.515Z,9.85
2023-04-06T14:39:11.892Z,10.02
2023-04-06T14:41:39.445Z,10.30
2023-04-06T14:44:06.913Z,10.52
2023-04-06T14:46:34.648Z,10.52
2023-04-06T14:49:02.250Z,9.57
2023-04-06T14:51:29.949Z,8.98
2023-04-06T14:53:57.718Z,9.50
2023-04-06T14:56:25.997Z,14.65
2023-04-06T14:58:55.096Z,9.07
2023-04-06T15:01:22.739Z,9.93
2023-04-06T15:03:50.486Z,8.57
2023-04-06T15:06:21.735Z,8.88
2023-04-06T15:08:50.588Z,9.43
2023-04-06T15:11:18.228Z,9.77
2023-04-06T15:13:45.595Z,10.73
2023-04-06T15:16:13.006Z,13.95
2023-04-06T15:18:40.757Z,11.43
2023-04-06T15:21:08.465Z,10.95
2023-04-06T15:23:35.983Z,10.52
2023-04-06T15:26:05.454Z,10.05
2023-04-06T15:28:32.481Z,9.80
2023-04-06T15:31:01.031Z,13.90
2023-04-06T15:33:34.487Z,9.52
2023-04-06T15:36:08.076Z,9.68
2023-04-06T15:41:04.004Z,10.80
2023-04-06T15:43:31.531Z,10.45
2023-04-06T15:45:58.852Z,9.20
2023-04-06T15:48:26.310Z,11.13
2023-04-06T15:50:53.715Z,10.10
2023-04-06T15:53:21.194Z,9.75
2023-04-06T15:55:49.671Z,9.77
2023-04-06T15:58:17.187Z,9.45
2023-04-06T16:00:45.691Z,10.00
2023-04-06T16:03:13.352Z,9.30
2023-04-06T16:05:53.706Z,9.90
2023-04-06T16:08:26.999Z,11.98
2023-04-06T16:10:54.378Z,16.98
2023-04-06T16:13:28.283Z,12.32
2023-04-06T16:15:55.764Z,19.20
2023-04-06T16:18:24.023Z,9.82
2023-04-06T16:20:51.580Z,9.60
2023-04-06T16:23:18.941Z,11.05
2023-04-06T16:25:46.719Z,12.40
2023-04-06T16:28:14.394Z,11.82
2023-04-06T16:30:43.644Z,12.27
2023-04-06T16:33:13.375Z,12.30
2023-04-06T16:35:45.736Z,12.90
2023-04-06T16:38:13.858Z,13.32
2023-04-06T16:40:41.280Z,16.38
2023-04-06T16:43:10.223Z,13.30
2023-04-06T16:45:38.778Z,16.75
2023-04-06T16:48:06.935Z,15.80
2023-04-06T16:50:36.695Z,17.35
2023-04-06T16:53:04.271Z,17.02
2023-04-06T16:55:31.657Z,12.75
2023-04-06T16:57:59.128Z,13.40
2023-04-06T17:00:26.658Z,12.75
2023-04-06T17:02:54.306Z,13.40
2023-04-06T17:05:25.021Z,11.88
2023-04-06T17:07:52.608Z,12.63
2023-04-06T17:10:28.742Z,12.98
2023-04-06T17:13:06.395Z,13.75
2023-04-06T17:15:33.864Z,13.55
2023-04-06T17:18:02.857Z,13.27
2023-04-06T17:20:30.424Z,13.23
2023-04-06T17:22:57.687Z,13.05
2023-04-06T17:25:26.318Z,14.07
2023-04-06T17:27:53.567Z,13.23
2023-04-06T17:30:21.591Z,13.30
2023-04-06T17:32:49.113Z,13.35
2023-04-06T17:35:16.703Z,13.82
2023-04-06T17:37:46.068Z,14.00
2023-04-06T17:40:13.551Z,13.70
2023-04-06T17:42:40.961Z,15.18
2023-04-06T17:45:08.579Z,17.40
2023-04-06T17:47:36.367Z,15.90
2023-04-06T17:50:04.000Z,14.50
2023-04-06T17:52:32.202Z,14.82
2023-04-06T17:54:59.888Z,14.43
2023-04-06T17:57:27.798Z,14.48
2023-04-06T17:59:55.295Z,13.75
2023-04-06T18:02:23.193Z,14.68
2023-04-06T18:05:00.053Z,13.27
2023-04-06T18:07:27.265Z,12.82
2023-04-06T18:09:54.781Z,13.20
2023-04-06T18:12:22.364Z,14.13
2023-04-06T18:14:49.993Z,13.48
2023-04-06T18:17:17.172Z,19.35
2023-04-06T18:19:44.845Z,13.57
2023-04-06T18:22:12.352Z,19.67
2023-04-06T18:24:42.670Z,20.17
2023-04-06T18:27:14.008Z,15.30
2023-04-06T18:29:45.608Z,14.10
2023-04-06T18:32:15.878Z,17.98
2023-04-06T18:34:45.690Z,15.15
2023-04-06T18:37:15.073Z,20.23
2023-04-06T18:39:43.830Z,18.02
2023-04-06T18:42:11.388Z,30.90
2023-04-06T18:44:39.545Z,29.20
2023-04-06T18:47:07.210Z,27.17
2023-04-06T18:49:34.934Z,23.00
2023-04-06T18:52:03.615Z,16.17
2023-04-06T18:54:31.466Z,22.00
2023-04-06T18:56:59.222Z,14.52
2023-04-06T18:59:30.724Z,15.48
2023-04-06T19:01:59.563Z,16.13
2023-04-06T19:04:27.366Z,32.85
2023-04-06T19:06:55.985Z,35.05
2023-04-06T19:09:23.922Z,27.92
2023-04-06T19:11:51.666Z,30.38
2023-04-06T19:14:20.156Z,61.92
2023-04-06T19:16:52.622Z,25.67
2023-04-06T19:19:26.161Z,47.03
2023-04-06T19:21:53.660Z,28.45
2023-04-06T19:24:21.509Z,44.40
2023-04-06T19:26:50.030Z,41.53
2023-04-06T19:29:17.681Z,46.10
2023-04-06T19:31:47.146Z,31.80
2023-04-06T19:34:18.078Z,25.27
2023-04-06T19:36:46.633Z,19.02
2023-04-06T19:39:18.433Z,20.10
2023-04-06T19:41:47.780Z,23.23
2023-04-06T19:44:16.110Z,22.27
2023-04-06T19:46:46.612Z,24.98
2023-04-06T19:49:14.766Z,24.15
2023-04-06T19:51:48.179Z,22.17
2023-04-06T19:54:15.678Z,22.75
2023-04-06T19:56:43.151Z,26.83
2023-04-06T19:59:11.438Z,28.58
2023-04-06T20:01:39.244Z,27.83
2023-04-06T20:04:13.294Z,26.00
2023-04-06T20:06:40.767Z,23.17
2023-04-06T20:09:09.715Z,21.55
2023-04-06T20:11:37.829Z,23.92
2023-04-06T20:14:11.320Z,25.35
2023-04-06T20:19:06.290Z,29.33
2023-04-06T20:21:36.860Z,45.17
2023-04-06T20:24:06.227Z,53.95
2023-04-06T20:26:33.639Z,59.78
2023-04-06T20:29:01.219Z,54.10
2023-04-06T20:31:29.191Z,106.55
2023-04-06T20:33:56.701Z,82.95
2023-04-06T20:36:28.233Z,90.15
2023-04-06T20:38:55.481Z,46.45
2023-04-06T20:41:23.298Z,31.33
2023-04-06T20:43:50.898Z,32.00
2023-04-06T20:46:18.597Z,26.75
2023-04-06T20:48:45.791Z,23.58
2023-04-06T20:51:25.794Z,24.25
2023-04-06T20:53:53.135Z,23.98
2023-04-06T20:56:27.765Z,22.67
2023-04-06T20:58:57.569Z,23.35
2023-04-06T21:01:25.284Z,23.58
2023-04-06T21:03:59.558Z,22.98
2023-04-06T21:06:28.780Z,22.60
2023-04-06T21:08:56.291Z,22.48
2023-04-06T21:11:23.580Z,24.83
2023-04-06T21:13:51.152Z,24.60
2023-04-06T21:16:18.588Z,23.70
2023-04-06T21:18:46.991Z,24.65
2023-04-06T21:21:14.627Z,24.08
2023-04-06T21:23:42.023Z,25.00
2023-04-06T21:26:12.800Z,24.92
2023-04-06T21:28:39.950Z,23.58
2023-04-06T21:31:08.993Z,24.38
2023-04-06T21:33:36.480Z,23.08
2023-04-06T21:36:08.356Z,22.33
2023-04-06T21:38:35.996Z,22.30
2023-04-06T21:41:03.913Z,22.15
2023-04-06T21:43:31.320Z,22.55
2023-04-06T21:45:58.759Z,22.92
2023-04-06T21:48:26.246Z,23.33
2023-04-06T21:50:53.703Z,43.92
2023-04-06T21:53:21.250Z,43.95
2023-04-06T21:55:51.341Z,47.20
2023-04-06T21:58:21.721Z,38.63
2023-04-06T22:00:49.180Z,56.28
2023-04-06T22:03:16.775Z,35.65
2023-04-06T22:05:44.163Z,25.08
2023-04-06T22:08:17.825Z,25.00
2023-04-06T22:10:53.303Z,24.95
2023-04-06T22:13:20.696Z,23.48
2023-04-06T22:15:49.315Z,25.00
2023-04-06T22:18:16.727Z,22.85
2023-04-06T22:20:44.736Z,22.73
2023-04-06T22:23:12.391Z,23.00
2023-04-06T22:25:39.708Z,23.83
2023-04-06T22:28:07.166Z,25.42
2023-04-06T22:30:34.477Z,26.15
2023-04-06T22:33:03.109Z,24.45
2023-04-06T22:35:30.521Z,24.67
2023-04-06T22:38:00.857Z,25.33
2023-04-06T22:40:29.376Z,24.60
2023-04-06T22:42:56.831Z,25.13
2023-04-06T22:45:26.324Z,25.05
2023-04-06T22:47:53.494Z,25.90
2023-04-06T22:50:22.194Z,24.38
2023-04-06T22:52:49.385Z,25.77
2023-04-06T22:55:16.750Z,25.15
2023-04-06T22:57:44.363Z,34.47
2023-04-06T23:00:13.982Z,32.58
2023-04-06T23:02:41.481Z,36.38
2023-04-06T23:05:09.361Z,37.13
2023-04-06T23:07:36.414Z,37.33
2023-04-06T23:10:08.036Z,35.45
2023-04-06T23:12:35.614Z,34.10
2023-04-06T23:15:02.966Z,36.17
2023-04-06T23:17:30.765Z,35.47
2023-04-06T23:20:04.698Z,32.88
2023-04-06T23:22:33.258Z,41.97
2023-04-06T23:25:00.641Z,40.75
2023-04-06T23:27:28.124Z,33.45
2023-04-06T23:29:56.525Z,28.63
2023-04-06T23:32:23.952Z,35.83
2023-04-06T23:34:52.404Z,38.65
2023-04-06T23:37:20.937Z,28.08
2023-04-06T23:39:48.726Z,28.45
2023-04-06T23:42:17.067Z,28.80
2023-04-06T23:44:44.323Z,29.63
2023-04-06T23:47:12.269Z,30.48
2023-04-06T23:49:40.752Z,32.10
2023-04-06T23:52:08.173Z,33.22
2023-04-06T23:54:35.921Z,32.60
2023-04-06T23:57:04.135Z,33.45
2023-04-06T23:59:31.636Z,34.70
